Time;durP1;ratioP1;P1;durP2;ratioP2;P2;SDS_P1;SDS_P2;PMS_P1;PMS_P2;Temp;Humidity;BMP_temperature;BMP_pressure;BME280_temperature;BME280_humidity;BME280_pressure;Samples;Min_cycle;Max_cycle;Signal;HPM_P1;HPM_P2
2022/10/05 00:04:18;;;;;;;23.90;21.27;;;;;;;;;;10107884;28;20496;-60
2022/10/05 00:09:20;;;;;;;30.67;23.98;;;;;;;;;;10119238;28;20059;-61
2022/10/05 00:14:18;;;;;;;29.58;23.77;;;;;;;;;;10127730;28;20049;-62
2022/10/05 00:19:29;;;;;;;33.20;24.73;;;;;;;;;;10133808;28;20056;-61
2022/10/05 00:24:23;;;;;;;28.42;23.50;;;;;;;;;;10108026;28;20444;-61
2022/10/05 00:29:37;;;;;;;27.25;21.23;;;;;;;;;;10151610;28;20453;-61
2022/10/05 00:34:33;;;;;;;32.08;25.13;;;;;;;;;;10134127;28;20091;-61
2022/10/05 00:39:28;;;;;;;28.17;25.35;;;;;;;;;;10135956;28;20047;-61
2022/10/05 00:44:35;;;;;;;30.08;23.83;;;;;;;;;;10137980;28;20044;-61
2022/10/05 00:49:46;;;;;;;30.63;24.88;;;;;;;;;;10129464;28;20139;-61
2022/10/05 00:55:04;;;;;;;26.17;22.95;;;;;;;;;;10126142;28;20052;-62
2022/10/05 01:00:11;;;;;;;31.02;22.85;;;;;;;;;;10120910;28;20091;-62
2022/10/05 01:05:23;;;;;;;27.17;24.23;;;;;;;;;;10111763;28;20143;-61
2022/10/05 01:10:28;;;;;;;28.58;22.23;;;;;;;;;;10124946;28;20044;-62
2022/10/05 01:15:32;;;;;;;32.10;24.88;;;;;;;;;;10129262;28;20455;-62
2022/10/05 01:20:30;;;;;;;29.85;24.60;;;;;;;;;;10137688;28;20036;-62
2022/10/05 01:25:33;;;;;;;32.00;25.25;;;;;;;;;;10123218;28;20048;-63
2022/10/05 01:30:33;;;;;;;32.78;25.55;;;;;;;;;;10143131;28;20098;-62
2022/10/05 01:35:26;;;;;;;25.20;22.52;;;;;;;;;;10145496;28;20048;-62
2022/10/05 01:40:35;;;;;;;31.55;23.33;;;;;;;;;;10145028;28;20051;-62
2022/10/05 01:46:12;;;;;;;27.30;23.13;;;;;;;;;;10131224;28;20067;-61
2022/10/05 01:51:17;;;;;;;33.00;23.85;;;;;;;;;;10125196;28;20313;-61
2022/10/05 01:56:26;;;;;;;28.08;23.33;;;;;;;;;;10113145;28;20052;-61
2022/10/05 02:01:35;;;;;;;25.33;22.33;;;;;;;;;;10127695;28;20130;-61
2022/10/05 02:06:32;;;;;;;30.67;22.88;;;;;;;;;;10122450;28;20496;-61
2022/10/05 02:11:25;;;;;;;32.92;23.45;;;;;;;;;;10109883;28;20055;-61
2022/10/05 02:16:26;;;;;;;28.25;22.85;;;;;;;;;;10120315;28;20053;-61
2022/10/05 02:21:21;;;;;;;31.40;24.75;;;;;;;;;;10121494;28;20524;-61
2022/10/05 02:26:20;;;;;;;23.95;19.85;;;;;;;;;;10120422;28;20048;-61
2022/10/05 02:31:21;;;;;;;27.77;21.75;;;;;;;;;;10123432;28;20441;-61
2022/10/05 02:36:38;;;;;;;25.67;21.95;;;;;;;;;;10125920;28;20512;-60
2022/10/05 02:42:00;;;;;;;26.10;21.10;;;;;;;;;;10124982;28;20044;-61
2022/10/05 02:47:09;;;;;;;31.90;23.70;;;;;;;;;;10111889;28;20136;-61
2022/10/05 02:52:37;;;;;;;29.20;24.57;;;;;;;;;;10134914;28;20052;-60
2022/10/05 02:57:39;;;;;;;29.00;22.45;;;;;;;;;;10144281;28;20056;-61
2022/10/05 03:02:50;;;;;;;28.40;23.02;;;;;;;;;;10107573;28;20044;-61
2022/10/05 03:07:50;;;;;;;30.65;24.10;;;;;;;;;;10103866;28;20127;-60
2022/10/05 03:13:08;;;;;;;28.35;23.10;;;;;;;;;;10131530;28;20084;-60
2022/10/05 03:18:21;;;;;;;29.90;24.58;;;;;;;;;;10126782;28;20052;-60
2022/10/05 03:23:30;;;;;;;31.10;24.40;;;;;;;;;;10126931;28;20041;-60
2022/10/05 03:28:49;;;;;;;33.90;25.08;;;;;;;;;;10142881;28;20052;-61
2022/10/05 03:33:59;;;;;;;29.13;23.00;;;;;;;;;;10151721;28;20060;-61
2022/10/05 03:39:37;;;;;;;29.27;23.30;;;;;;;;;;10120133;28;20045;-60
2022/10/05 03:44:51;;;;;;;26.75;22.38;;;;;;;;;;10145024;28;20055;-61
2022/10/05 03:49:59;;;;;;;29.73;23.02;;;;;;;;;;10147346;28;20078;-61
2022/10/05 03:55:12;;;;;;;31.43;24.03;;;;;;;;;;10130054;28;20066;-61
2022/10/05 04:00:05;;;;;;;32.10;22.73;;;;;;;;;;10119527;28;20521;-60
2022/10/05 04:05:22;;;;;;;29.33;22.20;;;;;;;;;;10128461;28;20051;-60
2022/10/05 04:11:07;;;;;;;27.15;20.90;;;;;;;;;;10107862;28;20075;-60
2022/10/05 04:16:05;;;;;;;26.13;23.35;;;;;;;;;;9918867;28;20057;-60
2022/10/05 04:21:09;;;;;;;24.88;21.80;;;;;;;;;;10108764;28;20044;-61
2022/10/05 04:26:10;;;;;;;29.38;23.42;;;;;;;;;;10131770;28;20062;-61
2022/10/05 04:31:04;;;;;;;29.80;23.42;;;;;;;;;;10113531;28;20094;-61
2022/10/05 04:36:12;;;;;;;27.27;22.67;;;;;;;;;;10117280;28;20493;-61
2022/10/05 04:41:27;;;;;;;28.50;21.77;;;;;;;;;;10100246;28;20106;-61
2022/10/05 04:46:39;;;;;;;26.45;20.25;;;;;;;;;;10109288;28;20049;-62
2022/10/05 04:51:49;;;;;;;23.23;19.45;;;;;;;;;;10143817;28;20049;-62
2022/10/05 04:56:48;;;;;;;22.90;19.92;;;;;;;;;;10124606;28;20501;-61
2022/10/05 05:02:05;;;;;;;24.73;20.65;;;;;;;;;;10110558;28;20075;-61
2022/10/05 05:07:16;;;;;;;24.67;20.33;;;;;;;;;;10128981;28;20237;-61
2022/10/05 05:12:44;;;;;;;21.65;19.10;;;;;;;;;;10102675;28;20044;-61
2022/10/05 05:17:57;;;;;;;23.45;19.45;;;;;;;;;;10117828;28;20123;-60
2022/10/05 05:23:25;;;;;;;21.45;18.92;;;;;;;;;;10113335;28;20485;-60
2022/10/05 05:28:28;;;;;;;19.33;17.23;;;;;;;;;;10107904;28;20052;-60
2022/10/05 05:33:45;;;;;;;19.40;16.65;;;;;;;;;;10107605;28;20045;-60
2022/10/05 05:38:49;;;;;;;19.13;15.90;;;;;;;;;;10115266;28;20048;-61
2022/10/05 05:43:57;;;;;;;23.00;18.63;;;;;;;;;;10115630;28;20087;-61
2022/10/05 05:48:51;;;;;;;24.63;20.42;;;;;;;;;;10103482;28;20139;-58
2022/10/05 05:53:50;;;;;;;24.52;20.60;;;;;;;;;;10106580;28;20473;-60
2022/10/05 05:58:43;;;;;;;;;;;;;;;;;;10113594;28;20056;-61
2022/10/05 06:03:56;;;;;;;24.63;20.52;;;;;;;;;;10108801;28;19990;-60
2022/10/05 06:08:57;;;;;;;28.25;22.63;;;;;;;;;;10125560;28;20079;-61
2022/10/05 06:14:04;;;;;;;27.15;23.60;;;;;;;;;;10113311;28;20052;-60
2022/10/05 06:19:02;;;;;;;30.27;24.15;;;;;;;;;;10105149;28;20048;-60
2022/10/05 06:24:19;;;;;;;36.63;26.98;;;;;;;;;;10121816;28;20582;-60
2022/10/05 06:29:17;;;;;;;33.95;29.52;;;;;;;;;;10104304;28;20050;-61
2022/10/05 06:34:26;;;;;;;46.63;29.67;;;;;;;;;;10095838;28;20063;-60
2022/10/05 06:39:24;;;;;;;42.97;30.38;;;;;;;;;;10104206;28;20505;-60
2022/10/05 06:44:35;;;;;;;45.97;28.73;;;;;;;;;;10102355;28;20053;-61
2022/10/05 06:50:12;;;;;;;37.22;28.17;;;;;;;;;;10105035;28;21014;-61
2022/10/05 06:55:46;;;;;;;31.85;26.25;;;;;;;;;;10100462;28;20416;-61
2022/10/05 07:00:45;;;;;;;26.85;23.88;;;;;;;;;;10113371;28;20049;-59
2022/10/05 07:05:51;;;;;;;25.42;22.10;;;;;;;;;;10132759;28;20049;-60
2022/10/05 07:11:17;;;;;;;28.63;24.60;;;;;;;;;;10106591;28;20048;-61
2022/10/05 07:16:37;;;;;;;26.88;23.63;;;;;;;;;;10049675;28;20082;-60
2022/10/05 07:21:42;;;;;;;27.20;22.92;;;;;;;;;;10086732;28;20131;-61
2022/10/05 07:27:01;;;;;;;36.75;24.33;;;;;;;;;;10113643;28;20136;-61
2022/10/05 07:32:20;;;;;;;26.67;23.75;;;;;;;;;;10094761;28;20045;-61
2022/10/05 07:43:09;;;;;;;38.72;26.08;;;;;;;;;;10088641;28;20045;-61
2022/10/05 07:48:34;;;;;;;32.75;26.05;;;;;;;;;;10107813;28;20084;-61
2022/10/05 07:53:36;;;;;;;31.13;24.83;;;;;;;;;;10026171;28;20440;-61
2022/10/05 07:58:35;;;;;;;35.60;25.05;;;;;;;;;;10116320;28;20135;-61
2022/10/05 08:03:52;;;;;;;27.90;24.77;;;;;;;;;;10102619;28;20049;-62
2022/10/05 08:08:57;;;;;;;31.20;25.02;;;;;;;;;;10136389;28;20051;-61
2022/10/05 08:13:54;;;;;;;23.55;20.98;;;;;;;;;;10134375;28;20052;-62
2022/10/05 08:18:55;;;;;;;23.15;20.55;;;;;;;;;;10136514;28;20040;-62
2022/10/05 08:24:04;;;;;;;26.75;24.05;;;;;;;;;;10119794;28;20557;-62
2022/10/05 08:29:12;;;;;;;24.35;20.38;;;;;;;;;;10138433;28;20044;-62
2022/10/05 08:34:37;;;;;;;24.33;21.40;;;;;;;;;;10110663;28;20072;-62
2022/10/05 08:39:39;;;;;;;31.85;26.08;;;;;;;;;;10127964;28;20102;-63
2022/10/05 08:44:41;;;;;;;23.65;20.92;;;;;;;;;;10136208;28;20044;-63
2022/10/05 08:50:08;;;;;;;27.15;24.17;;;;;;;;;;10130851;28;20441;-62
2022/10/05 08:55:29;;;;;;;22.23;19.88;;;;;;;;;;10132683;28;20045;-62
2022/10/05 09:00:23;;;;;;;21.08;18.42;;;;;;;;;;10119256;28;20049;-61
2022/10/05 09:05:48;;;;;;;22.45;19.40;;;;;;;;;;10126115;28;20564;-61
2022/10/05 09:11:25;;;;;;;19.73;17.52;;;;;;;;;;10077896;28;20052;-61
2022/10/05 09:17:02;;;;;;;24.02;18.80;;;;;;;;;;10127942;28;20054;-61
2022/10/05 09:22:20;;;;;;;24.02;19.83;;;;;;;;;;10027236;28;20057;-61
2022/10/05 09:27:15;;;;;;;30.55;21.08;;;;;;;;;;10132535;28;20044;-61
2022/10/05 09:33:05;;;;;;;21.25;18.52;;;;;;;;;;10118130;28;20028;-61
2022/10/05 09:38:37;;;;;;;28.88;20.63;;;;;;;;;;10023675;28;20058;-62
2022/10/05 09:43:30;;;;;;;18.80;16.65;;;;;;;;;;10097684;28;20047;-63
2022/10/05 09:48:58;;;;;;;19.00;17.05;;;;;;;;;;10134884;28;20127;-63
2022/10/05 09:54:19;;;;;;;19.55;17.48;;;;;;;;;;10135275;28;20590;-63
2022/10/05 09:59:31;;;;;;;18.30;13.50;;;;;;;;;;10129912;28;20064;-63
2022/10/05 10:05:02;;;;;;;14.48;12.38;;;;;;;;;;10125818;28;20041;-62
2022/10/05 10:10:14;;;;;;;18.30;10.10;;;;;;;;;;10122015;28;20045;-62
2022/10/05 10:15:25;;;;;;;19.67;11.88;;;;;;;;;;10121736;28;20132;-62
2022/10/05 10:20:30;;;;;;;15.43;12.82;;;;;;;;;;10127699;28;20048;-62
2022/10/05 10:25:45;;;;;;;11.95;10.65;;;;;;;;;;10127110;28;20390;-62
2022/10/05 10:30:54;;;;;;;16.90;11.38;;;;;;;;;;10120742;28;20094;-62
2022/10/05 10:36:37;;;;;;;19.92;14.32;;;;;;;;;;10127801;28;20067;-64
2022/10/05 10:41:57;;;;;;;22.33;13.65;;;;;;;;;;10084026;28;20040;-63
2022/10/05 10:47:08;;;;;;;18.70;15.60;;;;;;;;;;10129876;28;20440;-62
2022/10/05 10:52:43;;;;;;;20.85;13.93;;;;;;;;;;10122868;28;20461;-63
2022/10/05 10:57:36;;;;;;;14.25;9.98;;;;;;;;;;10128510;28;20055;-63
2022/10/05 11:02:42;;;;;;;20.45;13.57;;;;;;;;;;10114068;28;20064;-65
2022/10/05 11:07:53;;;;;;;15.48;13.88;;;;;;;;;;10117845;28;20056;-65
2022/10/05 11:13:04;;;;;;;16.63;11.20;;;;;;;;;;10125090;28;20048;-65
2022/10/05 11:18:15;;;;;;;15.02;13.43;;;;;;;;;;10111291;28;20132;-65
2022/10/05 11:23:46;;;;;;;17.65;13.93;;;;;;;;;;10125501;28;20087;-65
2022/10/05 11:29:08;;;;;;;14.73;12.05;;;;;;;;;;10118081;28;20489;-66
2022/10/05 11:34:43;;;;;;;11.35;10.15;;;;;;;;;;10127514;28;20053;-63
2022/10/05 11:40:05;;;;;;;14.60;10.75;;;;;;;;;;10115149;28;20098;-64
2022/10/05 11:45:13;;;;;;;9.43;8.40;;;;;;;;;;10106397;28;20072;-63
2022/10/05 11:50:31;;;;;;;15.15;11.45;;;;;;;;;;10103462;28;20627;-62
2022/10/05 11:55:32;;;;;;;13.80;8.57;;;;;;;;;;10122479;28;20090;-63
2022/10/05 12:00:36;;;;;;;11.82;10.70;;;;;;;;;;10100152;28;20098;-65
2022/10/05 12:05:41;;;;;;;13.02;11.50;;;;;;;;;;10106978;28;20508;-63
2022/10/05 12:10:50;;;;;;;16.65;12.95;;;;;;;;;;10134564;28;20132;-63
2022/10/05 12:16:13;;;;;;;16.48;14.98;;;;;;;;;;10135912;28;20131;-64
2022/10/05 12:21:37;;;;;;;17.52;13.80;;;;;;;;;;10127198;28;20094;-63
2022/10/05 12:26:33;;;;;;;22.23;15.45;;;;;;;;;;10114634;28;20087;-63
2022/10/05 12:32:01;;;;;;;15.80;13.02;;;;;;;;;;10116056;28;20144;-63
2022/10/05 12:37:00;;;;;;;19.40;13.15;;;;;;;;;;10118857;28;20056;-63
2022/10/05 12:42:19;;;;;;;14.98;13.35;;;;;;;;;;10120440;28;20544;-63
2022/10/05 12:47:18;;;;;;;17.13;13.55;;;;;;;;;;10114871;28;20057;-62
2022/10/05 12:52:54;;;;;;;16.05;12.52;;;;;;;;;;10145289;28;20056;-62
2022/10/05 12:58:30;;;;;;;14.00;11.17;;;;;;;;;;10137308;28;20040;-62
2022/10/05 13:03:45;;;;;;;10.90;9.88;;;;;;;;;;10123091;28;20509;-62
2022/10/05 13:09:15;;;;;;;11.80;9.18;;;;;;;;;;10146612;28;20063;-62
2022/10/05 13:14:23;;;;;;;10.65;8.60;;;;;;;;;;10143158;28;20106;-62
2022/10/05 13:19:34;;;;;;;10.02;8.68;;;;;;;;;;10144214;28;20052;-61
2022/10/05 13:24:45;;;;;;;11.13;9.70;;;;;;;;;;10123922;28;20131;-62
2022/10/05 13:29:44;;;;;;;10.73;9.65;;;;;;;;;;10140376;28;20131;-62
2022/10/05 13:35:19;;;;;;;14.05;8.43;;;;;;;;;;10113064;28;20095;-61
2022/10/05 13:40:27;;;;;;;11.25;8.27;;;;;;;;;;10126986;28;20056;-62
2022/10/05 13:45:24;;;;;;;14.38;8.40;;;;;;;;;;10136068;28;20080;-62
2022/10/05 13:50:33;;;;;;;15.02;7.93;;;;;;;;;;10093935;28;20060;-62
2022/10/05 13:55:41;;;;;;;9.25;8.30;;;;;;;;;;10107445;28;20045;-64
2022/10/05 14:00:50;;;;;;;10.68;7.35;;;;;;;;;;10121790;28;20134;-62
2022/10/05 14:05:56;;;;;;;13.20;9.50;;;;;;;;;;10114090;28;20454;-62
2022/10/05 14:10:57;;;;;;;13.30;8.57;;;;;;;;;;10111651;28;20051;-63
2022/10/05 14:16:03;;;;;;;12.20;8.98;;;;;;;;;;10134806;28;20081;-62
2022/10/05 14:21:05;;;;;;;13.05;8.60;;;;;;;;;;10129271;28;20067;-62
2022/10/05 14:26:01;;;;;;;10.18;9.18;;;;;;;;;;10127144;28;20053;-62
2022/10/05 14:31:13;;;;;;;11.55;9.65;;;;;;;;;;10113192;28;20106;-62
2022/10/05 14:36:17;;;;;;;11.60;8.63;;;;;;;;;;10112479;28;20497;-62
2022/10/05 14:41:19;;;;;;;12.80;7.43;;;;;;;;;;10115797;28;20171;-62
2022/10/05 14:46:15;;;;;;;8.85;8.00;;;;;;;;;;10129456;28;20516;-61
2022/10/05 14:51:30;;;;;;;10.80;8.57;;;;;;;;;;10131309;28;20080;-61
2022/10/05 14:56:23;;;;;;;12.55;7.05;;;;;;;;;;10136437;28;20459;-64
2022/10/05 15:01:29;;;;;;;16.98;7.95;;;;;;;;;;10134522;28;20139;-61
2022/10/05 15:06:40;;;;;;;14.02;6.53;;;;;;;;;;10139533;28;20404;-62
2022/10/05 15:11:53;;;;;;;13.90;7.00;;;;;;;;;;10139939;28;20098;-61
2022/10/05 15:16:52;;;;;;;10.00;6.68;;;;;;;;;;10134242;28;20041;-61
2022/10/05 15:22:09;;;;;;;8.95;6.88;;;;;;;;;;10116418;28;20127;-61
2022/10/05 15:27:03;;;;;;;13.75;6.82;;;;;;;;;;10126981;28;20064;-61
2022/10/05 15:32:00;;;;;;;11.43;6.90;;;;;;;;;;10127362;28;20078;-61
2022/10/05 15:37:21;;;;;;;10.17;6.40;;;;;;;;;;10136501;28;20542;-61
2022/10/05 15:42:35;;;;;;;10.43;5.95;;;;;;;;;;10116797;28;20085;-61
2022/10/05 15:47:53;;;;;;;9.13;6.97;;;;;;;;;;10123087;28;20040;-60
2022/10/05 15:53:10;;;;;;;7.65;6.07;;;;;;;;;;10130640;28;20051;-61
2022/10/05 15:59:02;;;;;;;11.05;7.25;;;;;;;;;;10120879;28;20057;-61
2022/10/05 16:03:58;;;;;;;8.35;6.03;;;;;;;;;;10128539;28;20083;-62
2022/10/05 16:09:13;;;;;;;5.50;4.97;;;;;;;;;;10128968;28;20044;-61
2022/10/05 16:14:12;;;;;;;8.02;4.50;;;;;;;;;;10116311;28;20497;-61
2022/10/05 16:19:30;;;;;;;11.05;5.85;;;;;;;;;;10137665;28;20049;-61
2022/10/05 16:24:46;;;;;;;5.45;4.95;;;;;;;;;;10129650;28;20048;-60
2022/10/05 16:29:53;;;;;;;9.63;5.30;;;;;;;;;;10141004;28;20044;-60
2022/10/05 16:34:48;;;;;;;8.88;5.43;;;;;;;;;;10127702;28;20056;-60
2022/10/05 16:39:55;;;;;;;6.57;5.13;;;;;;;;;;10145616;28;20404;-61
2022/10/05 16:45:18;;;;;;;7.35;4.45;;;;;;;;;;10136808;28;20044;-62
2022/10/05 16:50:19;;;;;;;6.80;4.82;;;;;;;;;;10138539;28;20076;-62
2022/10/05 16:55:25;;;;;;;13.88;5.50;;;;;;;;;;10119859;28;20555;-62
2022/10/05 17:00:23;;;;;;;6.82;5.85;;;;;;;;;;10099414;28;20088;-60
2022/10/05 17:05:38;;;;;;;7.72;5.15;;;;;;;;;;10118165;28;20485;-61
2022/10/05 17:11:02;;;;;;;9.40;5.05;;;;;;;;;;10136795;28;20052;-61
2022/10/05 17:16:02;;;;;;;10.82;6.40;;;;;;;;;;10138835;28;20053;-61
2022/10/05 17:21:22;;;;;;;10.55;7.05;;;;;;;;;;10137375;28;20055;-60
2022/10/05 17:26:33;;;;;;;7.57;5.30;;;;;;;;;;10097113;28;20040;-60
2022/10/05 17:31:30;;;;;;;13.27;6.65;;;;;;;;;;10136063;28;20036;-60
2022/10/05 17:36:41;;;;;;;9.20;6.38;;;;;;;;;;10136497;28;20067;-60
2022/10/05 17:41:37;;;;;;;10.68;7.07;;;;;;;;;;10136167;28;20052;-60
2022/10/05 17:46:46;;;;;;;9.73;7.40;;;;;;;;;;10134900;28;20063;-60
